sensor_id;sensor_type;location;lat;lon;timestamp;pressure;altitude;pressure_sealevel;temperature;humidity
7018;BME280;3549;42.162;24.726;2023-08-01T00:02:10;47457.56;;;-141.97;65.79
7018;BME280;3549;42.162;24.726;2023-08-01T00:04:35;47305.75;;;-141.97;66.13
7018;BME280;3549;42.162;24.726;2023-08-01T00:07:01;47478.72;;;-141.97;65.74
7018;BME280;3549;42.162;24.726;2023-08-01T00:09:26;47499.84;;;-141.97;65.08
7018;BME280;3549;42.162;24.726;2023-08-01T00:11:51;47557.53;;;-141.97;64.86
7018;BME280;3549;42.162;24.726;2023-08-01T00:14:17;47472.94;;;-141.97;64.58
7018;BME280;3549;42.162;24.726;2023-08-01T00:16:44;47367.25;;;-141.97;63.67
7018;BME280;3549;42.162;24.726;2023-08-01T00:19:10;47384.53;;;-141.97;63.76
7018;BME280;3549;42.162;24.726;2023-08-01T00:21:35;47407.59;;;-141.97;63.04
7018;BME280;3549;42.162;24.726;2023-08-01T00:24:00;47492.16;;;-141.97;62.39
7018;BME280;3549;42.162;24.726;2023-08-01T00:26:26;47688.22;;;-141.97;61.63
7018;BME280;3549;42.162;24.726;2023-08-01T00:28:51;47384.53;;;-141.97;60.96
7018;BME280;3549;42.162;24.726;2023-08-01T00:31:17;47642.09;;;-141.97;61.21
7018;BME280;3549;42.162;24.726;2023-08-01T00:33:42;47482.56;;;-141.97;60.67
7018;BME280;3549;42.162;24.726;2023-08-01T00:36:07;47472.94;;;-141.97;60.50
7018;BME280;3549;42.162;24.726;2023-08-01T00:38:35;47465.25;;;-141.97;60.00
7018;BME280;3549;42.162;24.726;2023-08-01T00:41:01;47426.81;;;-141.97;59.58
7018;BME280;3549;42.162;24.726;2023-08-01T00:43:26;47672.84;;;-141.97;59.66
7018;BME280;3549;42.162;24.726;2023-08-01T00:45:55;47447.97;;;-141.97;59.79
7018;BME280;3549;42.162;24.726;2023-08-01T00:48:24;47484.47;;;-141.97;60.35
7018;BME280;3549;42.162;24.726;2023-08-01T00:50:50;47349.94;;;-141.97;60.05
7018;BME280;3549;42.162;24.726;2023-08-01T00:53:16;47726.66;;;-141.97;60.18
7018;BME280;3549;42.162;24.726;2023-08-01T00:55:43;47469.09;;;-141.97;60.36
7018;BME280;3549;42.162;24.726;2023-08-01T00:58:08;47488.31;;;-141.97;60.89
7018;BME280;3549;42.162;24.726;2023-08-01T01:00:34;47692.06;;;-141.97;60.77
7018;BME280;3549;42.162;24.726;2023-08-01T01:03:00;47482.56;;;-141.97;60.86
7018;BME280;3549;42.162;24.726;2023-08-01T01:05:27;47482.56;;;-141.97;61.07
7018;BME280;3549;42.162;24.726;2023-08-01T01:07:57;47488.31;;;-141.97;60.81
7018;BME280;3549;42.162;24.726;2023-08-01T01:10:22;47738.19;;;-141.97;60.54
7018;BME280;3549;42.162;24.726;2023-08-01T01:12:48;47490.25;;;-141.97;60.55
7018;BME280;3549;42.162;24.726;2023-08-01T01:15:15;47718.97;;;-141.97;60.73
7018;BME280;3549;42.162;24.726;2023-08-01T01:17:40;47490.25;;;-141.97;60.96
7018;BME280;3549;42.162;24.726;2023-08-01T01:20:06;47398.00;;;-141.97;60.78
7018;BME280;3549;42.162;24.726;2023-08-01T01:22:32;47478.72;;;-141.97;61.08
7018;BME280;3549;42.162;24.726;2023-08-01T01:24:58;47403.75;;;-141.97;61.51
7018;BME280;3549;42.162;24.726;2023-08-01T01:27:25;47369.16;;;-141.97;61.65
7018;BME280;3549;42.162;24.726;2023-08-01T01:29:51;47634.41;;;-141.97;62.20
7018;BME280;3549;42.162;24.726;2023-08-01T01:32:17;47636.31;;;-141.97;62.18
7018;BME280;3549;42.162;24.726;2023-08-01T01:34:44;47344.19;;;-141.97;62.20
7018;BME280;3549;42.162;24.726;2023-08-01T01:37:10;47449.88;;;-141.97;62.23
7018;BME280;3549;42.162;24.726;2023-08-01T01:39:35;47465.25;;;-141.97;62.78
7018;BME280;3549;42.162;24.726;2023-08-01T01:42:01;47457.56;;;-141.97;62.30
7018;BME280;3549;42.162;24.726;2023-08-01T01:44:26;47363.41;;;-141.97;62.25
7018;BME280;3549;42.162;24.726;2023-08-01T01:46:53;47307.66;;;-141.97;61.97
7018;BME280;3549;42.162;24.726;2023-08-01T01:49:18;47524.84;;;-141.97;62.37
7018;BME280;3549;42.162;24.726;2023-08-01T01:51:44;47492.16;;;-141.97;62.04
7018;BME280;3549;42.162;24.726;2023-08-01T01:54:09;47703.59;;;-141.97;62.50
7018;BME280;3549;42.162;24.726;2023-08-01T01:56:34;47355.72;;;-141.97;62.54
7018;BME280;3549;42.162;24.726;2023-08-01T01:59:01;47507.53;;;-141.97;62.66
7018;BME280;3549;42.162;24.726;2023-08-01T02:01:26;47505.63;;;-141.97;62.12
7018;BME280;3549;42.162;24.726;2023-08-01T02:03:52;47638.25;;;-141.97;61.88
7018;BME280;3549;42.162;24.726;2023-08-01T02:06:17;47440.28;;;-141.97;61.51
7018;BME280;3549;42.162;24.726;2023-08-01T02:08:43;47453.72;;;-141.97;61.98
7018;BME280;3549;42.162;24.726;2023-08-01T02:11:08;47559.44;;;-141.97;62.52
7018;BME280;3549;42.162;24.726;2023-08-01T02:13:33;47359.56;;;-141.97;62.09
7018;BME280;3549;42.162;24.726;2023-08-01T02:15:59;47690.16;;;-141.97;62.52
7018;BME280;3549;42.162;24.726;2023-08-01T02:18:24;47686.31;;;-141.97;62.52
7018;BME280;3549;42.162;24.726;2023-08-01T02:20:50;47509.47;;;-141.97;63.74
7018;BME280;3549;42.162;24.726;2023-08-01T02:23:15;47446.03;;;-141.97;64.54
7018;BME280;3549;42.162;24.726;2023-08-01T02:25:41;47665.16;;;-141.97;64.36
7018;BME280;3549;42.162;24.726;2023-08-01T02:28:06;47617.09;;;-141.97;63.78
7018;BME280;3549;42.162;24.726;2023-08-01T02:30:33;47695.91;;;-141.97;63.62
7018;BME280;3549;42.162;24.726;2023-08-01T02:32:58;47430.66;;;-141.97;63.10
7018;BME280;3549;42.162;24.726;2023-08-01T02:35:23;47686.31;;;-141.97;63.20
7018;BME280;3549;42.162;24.726;2023-08-01T02:37:49;47474.88;;;-141.97;63.04
7018;BME280;3549;42.162;24.726;2023-08-01T02:40:14;47497.94;;;-141.97;62.92
7018;BME280;3549;42.162;24.726;2023-08-01T02:42:40;47484.47;;;-141.97;62.58
7018;BME280;3549;42.162;24.726;2023-08-01T02:45:05;47390.31;;;-141.97;63.13
7018;BME280;3549;42.162;24.726;2023-08-01T02:47:31;47407.59;;;-141.97;63.17
7018;BME280;3549;42.162;24.726;2023-08-01T02:49:56;47692.06;;;-141.97;63.51
7018;BME280;3549;42.162;24.726;2023-08-01T02:52:22;47488.31;;;-141.97;64.08
7018;BME280;3549;42.162;24.726;2023-08-01T02:54:47;47457.56;;;-141.97;64.12
7018;BME280;3549;42.162;24.726;2023-08-01T02:57:12;47480.63;;;-141.97;64.25
7018;BME280;3549;42.162;24.726;2023-08-01T02:59:38;47490.25;;;-141.97;64.11
7018;BME280;3549;42.162;24.726;2023-08-01T03:02:03;47524.84;;;-141.97;64.33
7018;BME280;3549;42.162;24.726;2023-08-01T03:04:28;47511.38;;;-141.97;64.37
7018;BME280;3549;42.162;24.726;2023-08-01T03:06:54;47434.50;;;-141.97;64.42
7018;BME280;3549;42.162;24.726;2023-08-01T03:09:19;47488.31;;;-141.97;64.71
7018;BME280;3549;42.162;24.726;2023-08-01T03:11:45;47461.41;;;-141.97;64.59
7018;BME280;3549;42.162;24.726;2023-08-01T03:14:10;47338.41;;;-141.97;64.68
7018;BME280;3549;42.162;24.726;2023-08-01T03:16:35;47507.53;;;-141.97;64.43
7018;BME280;3549;42.162;24.726;2023-08-01T03:19:01;47546.00;;;-141.97;64.11
7018;BME280;3549;42.162;24.726;2023-08-01T03:21:32;47511.38;;;-141.97;64.23
7018;BME280;3549;42.162;24.726;2023-08-01T03:23:57;47497.94;;;-141.97;64.42
7018;BME280;3549;42.162;24.726;2023-08-01T03:26:23;47501.78;;;-141.97;64.71
7018;BME280;3549;42.162;24.726;2023-08-01T03:28:48;47530.59;;;-141.97;64.43
7018;BME280;3549;42.162;24.726;2023-08-01T03:31:13;47488.31;;;-141.97;64.30
7018;BME280;3549;42.162;24.726;2023-08-01T03:33:39;47459.50;;;-141.97;64.60
7018;BME280;3549;42.162;24.726;2023-08-01T03:36:04;47617.09;;;-141.97;64.34
7018;BME280;3549;42.162;24.726;2023-08-01T03:38:30;47738.19;;;-141.97;64.19
7018;BME280;3549;42.162;24.726;2023-08-01T03:40:55;47388.38;;;-141.97;64.14
7018;BME280;3549;42.162;24.726;2023-08-01T03:43:21;47538.28;;;-141.97;63.97
7018;BME280;3549;42.162;24.726;2023-08-01T03:45:49;47534.44;;;-141.97;64.88
7018;BME280;3549;42.162;24.726;2023-08-01T03:48:14;47519.06;;;-141.97;64.88
7018;BME280;3549;42.162;24.726;2023-08-01T03:50:40;47501.78;;;-141.97;64.70
7018;BME280;3549;42.162;24.726;2023-08-01T03:53:05;47492.16;;;-141.97;64.80
7018;BME280;3549;42.162;24.726;2023-08-01T03:55:31;47522.91;;;-141.97;64.89
7018;BME280;3549;42.162;24.726;2023-08-01T03:57:56;47490.25;;;-141.97;64.30
7018;BME280;3549;42.162;24.726;2023-08-01T04:00:22;47386.47;;;-141.97;64.01
7018;BME280;3549;42.162;24.726;2023-08-01T04:02:47;47363.41;;;-141.97;63.30
7018;BME280;3549;42.162;24.726;2023-08-01T04:05:12;47532.53;;;-141.97;63.45
7018;BME280;3549;42.162;24.726;2023-08-01T04:07:38;47557.53;;;-141.97;63.63
7018;BME280;3549;42.162;24.726;2023-08-01T04:10:04;47565.22;;;-141.97;63.74
7018;BME280;3549;42.162;24.726;2023-08-01T04:12:31;47534.44;;;-141.97;64.11
7018;BME280;3549;42.162;24.726;2023-08-01T04:14:57;47538.28;;;-141.97;64.26
7018;BME280;3549;42.162;24.726;2023-08-01T04:17:23;47515.22;;;-141.97;64.31
7018;BME280;3549;42.162;24.726;2023-08-01T04:19:48;47459.50;;;-141.97;64.35
7018;BME280;3549;42.162;24.726;2023-08-01T04:22:13;47538.28;;;-141.97;64.02
7018;BME280;3549;42.162;24.726;2023-08-01T04:24:39;47457.56;;;-141.97;63.16
7018;BME280;3549;42.162;24.726;2023-08-01T04:27:04;47497.94;;;-141.97;62.64
7018;BME280;3549;42.162;24.726;2023-08-01T04:29:30;47649.78;;;-141.97;62.10
7018;BME280;3549;42.162;24.726;2023-08-01T04:31:56;47551.75;;;-141.97;61.71
7018;BME280;3549;42.162;24.726;2023-08-01T04:34:21;47388.38;;;-141.97;61.57
7018;BME280;3549;42.162;24.726;2023-08-01T04:36:47;47515.22;;;-141.97;61.58
7018;BME280;3549;42.162;24.726;2023-08-01T04:39:12;47603.66;;;-141.97;61.52
7018;BME280;3549;42.162;24.726;2023-08-01T04:41:37;47446.03;;;-141.97;61.83
7018;BME280;3549;42.162;24.726;2023-08-01T04:44:03;47499.84;;;-141.97;62.14
7018;BME280;3549;42.162;24.726;2023-08-01T04:46:28;47530.59;;;-141.97;63.33
7018;BME280;3549;42.162;24.726;2023-08-01T04:48:54;47469.09;;;-141.97;63.07
7018;BME280;3549;42.162;24.726;2023-08-01T04:51:19;47444.13;;;-141.97;63.87
7018;BME280;3549;42.162;24.726;2023-08-01T04:53:44;47357.63;;;-141.97;63.76
7018;BME280;3549;42.162;24.726;2023-08-01T04:56:10;47396.06;;;-141.97;63.52
7018;BME280;3549;42.162;24.726;2023-08-01T04:58:35;47471.03;;;-141.97;64.11
7018;BME280;3549;42.162;24.726;2023-08-01T05:01:01;47544.06;;;-141.97;64.35
7018;BME280;3549;42.162;24.726;2023-08-01T05:03:26;47728.59;;;-141.97;64.75
7018;BME280;3549;42.162;24.726;2023-08-01T05:05:51;47396.06;;;-141.97;64.38
7018;BME280;3549;42.162;24.726;2023-08-01T05:08:17;47507.53;;;-141.97;63.65
7018;BME280;3549;42.162;24.726;2023-08-01T05:10:42;47534.44;;;-141.97;63.21
7018;BME280;3549;42.162;24.726;2023-08-01T05:13:07;47407.59;;;-141.97;62.90
7018;BME280;3549;42.162;24.726;2023-08-01T05:15:33;47524.84;;;-141.97;62.92
7018;BME280;3549;42.162;24.726;2023-08-01T05:17:58;47330.72;;;-141.97;63.05
7018;BME280;3549;42.162;24.726;2023-08-01T05:20:24;47676.69;;;-141.97;62.59
7018;BME280;3549;42.162;24.726;2023-08-01T05:22:51;47507.53;;;-141.97;61.94
7018;BME280;3549;42.162;24.726;2023-08-01T05:25:16;47530.59;;;-141.97;61.43
7018;BME280;3549;42.162;24.726;2023-08-01T05:27:42;47490.25;;;-141.97;61.32
7018;BME280;3549;42.162;24.726;2023-08-01T05:30:09;47451.81;;;-141.97;60.40
7018;BME280;3549;42.162;24.726;2023-08-01T05:32:35;47474.88;;;-141.97;58.76
7018;BME280;3549;42.162;24.726;2023-08-01T05:35:00;47488.31;;;-141.97;57.39
7018;BME280;3549;42.162;24.726;2023-08-01T05:37:26;47411.44;;;-141.97;57.37
7018;BME280;3549;42.162;24.726;2023-08-01T05:39:51;47484.47;;;-141.97;57.03
7018;BME280;3549;42.162;24.726;2023-08-01T05:42:16;47517.16;;;-141.97;56.44
7018;BME280;3549;42.162;24.726;2023-08-01T05:44:42;47511.38;;;-141.97;56.14
7018;BME280;3549;42.162;24.726;2023-08-01T05:47:07;47482.56;;;-141.97;55.27
7018;BME280;3549;42.162;24.726;2023-08-01T05:49:33;47453.72;;;-141.97;54.80
7018;BME280;3549;42.162;24.726;2023-08-01T05:51:58;47411.44;;;-141.97;54.60
7018;BME280;3549;42.162;24.726;2023-08-01T05:54:24;47467.19;;;-141.97;53.88
7018;BME280;3549;42.162;24.726;2023-08-01T05:56:49;47476.78;;;-141.97;52.73
7018;BME280;3549;42.162;24.726;2023-08-01T05:59:15;47453.72;;;-141.97;51.90
7018;BME280;3549;42.162;24.726;2023-08-01T06:01:40;47447.97;;;-141.97;51.66
7018;BME280;3549;42.162;24.726;2023-08-01T06:04:05;47428.75;;;-141.97;51.52
7018;BME280;3549;42.162;24.726;2023-08-01T06:06:31;47357.63;;;-141.97;50.43
7018;BME280;3549;42.162;24.726;2023-08-01T06:08:56;47488.31;;;-141.97;50.54
7018;BME280;3549;42.162;24.726;2023-08-01T06:11:22;47440.28;;;-141.97;50.72
7018;BME280;3549;42.162;24.726;2023-08-01T06:13:47;47434.50;;;-141.97;50.37
7018;BME280;3549;42.162;24.726;2023-08-01T06:16:12;47499.84;;;-141.97;50.29
7018;BME280;3549;42.162;24.726;2023-08-01T06:18:38;47392.22;;;-141.97;50.44
7018;BME280;3549;42.162;24.726;2023-08-01T06:21:03;47688.22;;;-141.97;49.87
7018;BME280;3549;42.162;24.726;2023-08-01T06:23:29;47348.03;;;-141.97;49.11
7018;BME280;3549;42.162;24.726;2023-08-01T06:25:54;47446.03;;;-141.97;48.86
7018;BME280;3549;42.162;24.726;2023-08-01T06:28:19;47419.13;;;-141.97;48.58
7018;BME280;3549;42.162;24.726;2023-08-01T06:30:45;47355.72;;;-141.97;47.94
7018;BME280;3549;42.162;24.726;2023-08-01T06:33:11;47619.03;;;-141.97;47.46
7018;BME280;3549;42.162;24.726;2023-08-01T06:35:36;47428.75;;;-141.97;47.78
7018;BME280;3549;42.162;24.726;2023-08-01T06:38:01;47453.72;;;-141.97;47.05
7018;BME280;3549;42.162;24.726;2023-08-01T06:40:27;47442.19;;;-141.97;47.15
7018;BME280;3549;42.162;24.726;2023-08-01T06:42:52;47422.97;;;-141.97;47.35
7018;BME280;3549;42.162;24.726;2023-08-01T06:45:17;47392.22;;;-141.97;46.78
7018;BME280;3549;42.162;24.726;2023-08-01T06:47:43;47471.03;;;-141.97;46.28
7018;BME280;3549;42.162;24.726;2023-08-01T06:50:09;47409.53;;;-141.97;46.24
7018;BME280;3549;42.162;24.726;2023-08-01T06:52:35;47613.25;;;-141.97;46.30
7018;BME280;3549;42.162;24.726;2023-08-01T06:55:00;47584.44;;;-141.97;46.73
7018;BME280;3549;42.162;24.726;2023-08-01T06:57:25;47430.66;;;-141.97;46.24
7018;BME280;3549;42.162;24.726;2023-08-01T06:59:51;47436.44;;;-141.97;44.91
7018;BME280;3549;42.162;24.726;2023-08-01T07:02:16;47417.22;;;-141.97;44.11
7018;BME280;3549;42.162;24.726;2023-08-01T07:04:42;47388.38;;;-141.97;43.48
7018;BME280;3549;42.162;24.726;2023-08-01T07:07:07;47613.25;;;-141.97;43.23
7018;BME280;3549;42.162;24.726;2023-08-01T07:09:34;47459.50;;;-141.97;43.24
7018;BME280;3549;42.162;24.726;2023-08-01T07:11:59;47424.91;;;-141.97;42.66
7018;BME280;3549;42.162;24.726;2023-08-01T07:14:25;47409.53;;;-141.97;42.92
7018;BME280;3549;42.162;24.726;2023-08-01T07:16:50;47380.69;;;-141.97;43.49
7018;BME280;3549;42.162;24.726;2023-08-01T07:19:16;47401.84;;;-141.97;43.61
7018;BME280;3549;42.162;24.726;2023-08-01T07:21:41;47417.22;;;-141.97;43.08
7018;BME280;3549;42.162;24.726;2023-08-01T07:24:06;47380.69;;;-141.97;42.15
7018;BME280;3549;42.162;24.726;2023-08-01T07:26:32;47415.28;;;-141.97;42.02
7018;BME280;3549;42.162;24.726;2023-08-01T07:28:57;47401.84;;;-141.97;41.53
7018;BME280;3549;42.162;24.726;2023-08-01T07:31:23;47392.22;;;-141.97;40.75
7018;BME280;3549;42.162;24.726;2023-08-01T07:33:48;47426.81;;;-141.97;41.10
7018;BME280;3549;42.162;24.726;2023-08-01T07:36:13;47373.00;;;-141.97;41.30
7018;BME280;3549;42.162;24.726;2023-08-01T07:38:39;47361.47;;;-141.97;40.46
7018;BME280;3549;42.162;24.726;2023-08-01T07:41:05;47415.28;;;-141.97;40.92
7018;BME280;3549;42.162;24.726;2023-08-01T07:43:32;47396.06;;;-141.97;41.18
7018;BME280;3549;42.162;24.726;2023-08-01T07:45:58;47369.16;;;-141.97;40.99
7018;BME280;3549;42.162;24.726;2023-08-01T07:48:24;47396.06;;;-141.97;40.19
7018;BME280;3549;42.162;24.726;2023-08-01T07:50:50;47361.47;;;-141.97;40.69
7018;BME280;3549;42.162;24.726;2023-08-01T07:53:15;47353.78;;;-141.97;41.41
7018;BME280;3549;42.162;24.726;2023-08-01T07:55:41;47376.84;;;-141.97;40.05
7018;BME280;3549;42.162;24.726;2023-08-01T07:58:06;47388.38;;;-141.97;40.00
7018;BME280;3549;42.162;24.726;2023-08-01T08:00:34;47594.03;;;-141.97;40.63
7018;BME280;3549;42.162;24.726;2023-08-01T08:03:00;47380.69;;;-141.97;41.71
7018;BME280;3549;42.162;24.726;2023-08-01T08:05:25;47382.63;;;-141.97;41.04
7018;BME280;3549;42.162;24.726;2023-08-01T08:07:51;47396.06;;;-141.97;39.92
7018;BME280;3549;42.162;24.726;2023-08-01T08:10:16;47342.25;;;-141.97;39.71
7018;BME280;3549;42.162;24.726;2023-08-01T08:12:41;47353.78;;;-141.97;38.92
7018;BME280;3549;42.162;24.726;2023-08-01T08:15:07;47376.84;;;-141.97;39.33
7018;BME280;3549;42.162;24.726;2023-08-01T08:17:32;47392.22;;;-141.97;39.51
7018;BME280;3549;42.162;24.726;2023-08-01T08:19:58;47599.81;;;-141.97;39.09
7018;BME280;3549;42.162;24.726;2023-08-01T08:22:23;47357.63;;;-141.97;38.73
7018;BME280;3549;42.162;24.726;2023-08-01T08:24:48;47342.25;;;-141.97;38.18
7018;BME280;3549;42.162;24.726;2023-08-01T08:27:14;47378.78;;;-141.97;38.04
7018;BME280;3549;42.162;24.726;2023-08-01T08:29:39;47342.25;;;-141.97;37.41
7018;BME280;3549;42.162;24.726;2023-08-01T08:32:05;47342.25;;;-141.97;37.00
7018;BME280;3549;42.162;24.726;2023-08-01T08:34:31;47317.28;;;-141.97;36.15
7018;BME280;3549;42.162;24.726;2023-08-01T08:36:56;47238.47;;;-141.97;36.22
7018;BME280;3549;42.162;24.726;2023-08-01T08:39:21;47340.34;;;-141.97;36.73
7018;BME280;3549;42.162;24.726;2023-08-01T08:41:49;47351.88;;;-141.97;36.65
7018;BME280;3549;42.162;24.726;2023-08-01T08:44:16;47365.31;;;-141.97;36.38
7018;BME280;3549;42.162;24.726;2023-08-01T08:46:42;47342.25;;;-141.97;37.19
7018;BME280;3549;42.162;24.726;2023-08-01T08:49:09;47311.50;;;-141.97;36.86
7018;BME280;3549;42.162;24.726;2023-08-01T08:51:40;47342.25;;;-141.97;36.05
7018;BME280;3549;42.162;24.726;2023-08-01T08:54:07;47188.50;;;-141.97;35.76
7018;BME280;3549;42.162;24.726;2023-08-01T08:56:33;47353.78;;;-141.97;35.74
7018;BME280;3549;42.162;24.726;2023-08-01T08:58:59;47332.66;;;-141.97;35.50
7018;BME280;3549;42.162;24.726;2023-08-01T09:01:26;47430.66;;;-141.97;35.14
7018;BME280;3549;42.162;24.726;2023-08-01T09:03:51;47371.09;;;-141.97;35.08
7018;BME280;3549;42.162;24.726;2023-08-01T09:06:24;47319.19;;;-141.97;35.05
7018;BME280;3549;42.162;24.726;2023-08-01T09:08:53;47336.50;;;-141.97;35.37
7018;BME280;3549;42.162;24.726;2023-08-01T09:11:20;47307.66;;;-141.97;35.05
7018;BME280;3549;42.162;24.726;2023-08-01T09:13:47;47315.34;;;-141.97;33.91
7018;BME280;3549;42.162;24.726;2023-08-01T09:16:14;47271.16;;;-141.97;33.53
7018;BME280;3549;42.162;24.726;2023-08-01T09:18:50;47299.97;;;-141.97;33.74
7018;BME280;3549;42.162;24.726;2023-08-01T09:21:20;47228.88;;;-141.97;34.16
7018;BME280;3549;42.162;24.726;2023-08-01T09:23:46;47301.91;;;-141.97;34.34
7018;BME280;3549;42.162;24.726;2023-08-01T09:26:15;47284.59;;;-141.97;34.33
7018;BME280;3549;42.162;24.726;2023-08-01T09:28:41;47605.56;;;-141.97;34.11
7018;BME280;3549;42.162;24.726;2023-08-01T09:31:06;47284.59;;;-141.97;34.14
7018;BME280;3549;42.162;24.726;2023-08-01T09:33:41;47286.53;;;-141.97;34.09
7018;BME280;3549;42.162;24.726;2023-08-01T09:36:10;47307.66;;;-141.97;34.77
7018;BME280;3549;42.162;24.726;2023-08-01T09:38:37;47369.16;;;-141.97;34.40
7018;BME280;3549;42.162;24.726;2023-08-01T09:41:03;47330.72;;;-141.97;34.68
7018;BME280;3549;42.162;24.726;2023-08-01T09:43:36;47426.81;;;-141.97;34.71
7018;BME280;3549;42.162;24.726;2023-08-01T09:46:02;47355.72;;;-141.97;35.17
7018;BME280;3549;42.162;24.726;2023-08-01T09:48:29;47332.66;;;-141.97;34.94
7018;BME280;3549;42.162;24.726;2023-08-01T09:51:12;47334.56;;;-141.97;34.03
7018;BME280;3549;42.162;24.726;2023-08-01T09:56:18;47303.81;;;-141.97;33.15
7018;BME280;3549;42.162;24.726;2023-08-01T09:58:46;47434.50;;;-141.97;33.56
7018;BME280;3549;42.162;24.726;2023-08-01T10:01:14;47284.59;;;-141.97;33.82
7018;BME280;3549;42.162;24.726;2023-08-01T10:03:44;47307.66;;;-141.97;33.67
7018;BME280;3549;42.162;24.726;2023-08-01T10:06:13;47301.91;;;-141.97;34.07
7018;BME280;3549;42.162;24.726;2023-08-01T10:08:39;47546.00;;;-141.97;34.12
7018;BME280;3549;42.162;24.726;2023-08-01T10:11:05;47273.06;;;-141.97;33.87
7018;BME280;3549;42.162;24.726;2023-08-01T10:13:31;47284.59;;;-141.97;34.48
7018;BME280;3549;42.162;24.726;2023-08-01T10:15:57;47303.81;;;-141.97;34.98
7018;BME280;3549;42.162;24.726;2023-08-01T10:18:23;47570.97;;;-141.97;34.62
7018;BME280;3549;42.162;24.726;2023-08-01T10:20:49;47280.75;;;-141.97;35.39
7018;BME280;3549;42.162;24.726;2023-08-01T10:23:15;47092.41;;;-141.97;34.78
7018;BME280;3549;42.162;24.726;2023-08-01T10:25:41;47234.63;;;-141.97;34.98
7018;BME280;3549;42.162;24.726;2023-08-01T10:28:07;47307.66;;;-141.97;35.16
7018;BME280;3549;42.162;24.726;2023-08-01T10:30:32;47299.97;;;-141.97;36.10
7018;BME280;3549;42.162;24.726;2023-08-01T10:32:59;47182.75;;;-141.97;36.00
7018;BME280;3549;42.162;24.726;2023-08-01T10:35:51;47290.38;;;-141.97;35.21
7018;BME280;3549;42.162;24.726;2023-08-01T10:38:17;47530.59;;;-141.97;35.49
7018;BME280;3549;42.162;24.726;2023-08-01T10:40:43;47263.47;;;-141.97;35.43
7018;BME280;3549;42.162;24.726;2023-08-01T10:43:24;47267.31;;;-141.97;34.85
7018;BME280;3549;42.162;24.726;2023-08-01T10:46:02;47265.38;;;-141.97;34.92
7018;BME280;3549;42.162;24.726;2023-08-01T10:48:28;47288.44;;;-141.97;35.04
7018;BME280;3549;42.162;24.726;2023-08-01T10:50:56;47324.97;;;-141.97;35.88
7018;BME280;3549;42.162;24.726;2023-08-01T10:53:22;47307.66;;;-141.97;35.93
7018;BME280;3549;42.162;24.726;2023-08-01T10:55:48;47328.81;;;-141.97;35.46
7018;BME280;3549;42.162;24.726;2023-08-01T10:58:14;47328.81;;;-141.97;35.29
7018;BME280;3549;42.162;24.726;2023-08-01T11:00:42;47171.22;;;-141.97;35.63
7018;BME280;3549;42.162;24.726;2023-08-01T11:03:07;47276.91;;;-141.97;35.58
7018;BME280;3549;42.162;24.726;2023-08-01T11:05:33;47157.75;;;-141.97;36.00
7018;BME280;3549;42.162;24.726;2023-08-01T11:08:00;47038.59;;;-141.97;35.43
7018;BME280;3549;42.162;24.726;2023-08-01T11:10:30;47307.66;;;-141.97;35.16
7018;BME280;3549;42.162;24.726;2023-08-01T11:12:57;47474.88;;;-141.97;35.25
7018;BME280;3549;42.162;24.726;2023-08-01T11:15:23;47530.59;;;-141.97;34.90
7018;BME280;3549;42.162;24.726;2023-08-01T11:17:50;47042.44;;;-141.97;34.33
7018;BME280;3549;42.162;24.726;2023-08-01T11:20:18;47609.41;;;-141.97;34.81
7018;BME280;3549;42.162;24.726;2023-08-01T11:25:15;47221.19;;;-141.97;34.32
7018;BME280;3549;42.162;24.726;2023-08-01T11:27:41;47242.31;;;-141.97;34.25
7018;BME280;3549;42.162;24.726;2023-08-01T11:30:07;47334.56;;;-141.97;34.30
7018;BME280;3549;42.162;24.726;2023-08-01T11:32:37;47296.13;;;-141.97;33.35
7018;BME280;3549;42.162;24.726;2023-08-01T11:35:04;47342.25;;;-141.97;33.06
7018;BME280;3549;42.162;24.726;2023-08-01T11:37:30;47157.75;;;-141.97;32.51
7018;BME280;3549;42.162;24.726;2023-08-01T11:39:56;47230.78;;;-141.97;32.57
7018;BME280;3549;42.162;24.726;2023-08-01T11:42:23;47209.66;;;-141.97;31.70
7018;BME280;3549;42.162;24.726;2023-08-01T11:44:48;47200.03;;;-141.97;31.14
7018;BME280;3549;42.162;24.726;2023-08-01T11:47:15;47184.66;;;-141.97;31.09
7018;BME280;3549;42.162;24.726;2023-08-01T11:49:48;47196.19;;;-141.97;30.33
7018;BME280;3549;42.162;24.726;2023-08-01T11:52:26;47217.34;;;-141.97;31.23
7018;BME280;3549;42.162;24.726;2023-08-01T11:54:52;47184.66;;;-141.97;31.23
7018;BME280;3549;42.162;24.726;2023-08-01T11:57:22;47032.84;;;-141.97;30.78
7018;BME280;3549;42.162;24.726;2023-08-01T11:59:57;47092.41;;;-141.97;30.32
7018;BME280;3549;42.162;24.726;2023-08-01T12:02:27;47121.25;;;-141.97;29.88
7018;BME280;3549;42.162;24.726;2023-08-01T12:04:55;47246.16;;;-141.97;30.01
7018;BME280;3549;42.162;24.726;2023-08-01T12:07:21;47123.16;;;-141.97;29.08
7018;BME280;3549;42.162;24.726;2023-08-01T12:09:57;47461.41;;;-141.97;29.16
7018;BME280;3549;42.162;24.726;2023-08-01T12:12:23;47048.22;;;-141.97;29.32
7018;BME280;3549;42.162;24.726;2023-08-01T12:14:49;47111.63;;;-141.97;28.94
7018;BME280;3549;42.162;24.726;2023-08-01T12:17:14;47084.72;;;-141.97;28.38
7018;BME280;3549;42.162;24.726;2023-08-01T12:19:39;46982.88;;;-141.97;28.48
7018;BME280;3549;42.162;24.726;2023-08-01T12:22:05;47250.00;;;-141.97;27.63
7018;BME280;3549;42.162;24.726;2023-08-01T12:24:30;47403.75;;;-141.97;27.68
7018;BME280;3549;42.162;24.726;2023-08-01T12:26:56;47036.69;;;-141.97;27.76
7018;BME280;3549;42.162;24.726;2023-08-01T12:29:22;47030.91;;;-141.97;27.57
7018;BME280;3549;42.162;24.726;2023-08-01T12:31:48;46892.56;;;-141.97;27.79
7018;BME280;3549;42.162;24.726;2023-08-01T12:34:14;47340.34;;;-141.97;27.59
7018;BME280;3549;42.162;24.726;2023-08-01T12:36:39;47065.50;;;-141.97;27.91
7018;BME280;3549;42.162;24.726;2023-08-01T12:39:05;46946.34;;;-141.97;27.38
7018;BME280;3549;42.162;24.726;2023-08-01T12:41:35;47013.63;;;-141.97;27.51
7018;BME280;3549;42.162;24.726;2023-08-01T12:44:01;46998.25;;;-141.97;28.24
7018;BME280;3549;42.162;24.726;2023-08-01T12:46:26;47063.59;;;-141.97;27.94
7018;BME280;3549;42.162;24.726;2023-08-01T12:48:51;46996.31;;;-141.97;27.68
7018;BME280;3549;42.162;24.726;2023-08-01T12:51:17;46946.34;;;-141.97;26.71